Aviation Digital Data Service (ADDS)

Output produced by METARs form (0348 UTC 20 February 2018)
found at http://www.aviationweather.gov/adds/metars/
 
Forecast for: ZSPD (SHANGHAI/PUDONG , CN)
Text: TAF ZSPD 192115Z 2000/2024 03006MPS 3500 BR BKN012 TX09/2006Z TN05/2021Z
Forecast period: 0000 to 0700 UTC 20 February 2018
Forecast type: FROM: standard forecast or significant change
Winds: from the NNE (30 degrees) at 14 MPH (12 knots; 6.2 m/s)
Visibility: 2.17 miles (3.49 km)
Ceiling: 1200 feet AGL
Clouds: broken clouds at 1200 feet AGL
Weather: BR  (mist)
Text: BECMG 2007/2009 2800 -RA BR BKN005 OVC040
Forecast period: 0700 to 1800 UTC 20 February 2018
Forecast type: BECOMING: Conditions expected to become as follows by 0900 UTC 20 February 2018
Winds: from the NNE (30 degrees) at 14 MPH (12 knots; 6.2 m/s)
Visibility: 1.74 miles (2.80 km)
Ceiling: 500 feet AGL
Clouds: broken clouds at 500 feet AGL
overcast cloud deck at 4000 feet AGL
Weather: -RA BR  (light rain, mist)
Text: BECMG 2018/2020 3000 -RA BR BKN010 OVC040
Forecast period: 1800 UTC 20 February 2018 to 0000 UTC 21 February 2018
Forecast type: BECOMING: Conditions expected to become as follows by 2000 UTC 20 February 2018
Winds: from the NNE (30 degrees) at 14 MPH (12 knots; 6.2 m/s)
Visibility: 1.86 miles (2.99 km)
Ceiling: 1000 feet AGL
Clouds: broken clouds at 1000 feet AGL
overcast cloud deck at 4000 feet AGL
Weather: -RA BR  (light rain, mist)